Schedule Details

Flight Number: ASX308X
Departure: Bornholm Rønne (EKRN) at 10:40Z
Arrival: Gdansk im. Lecha Walesy (EPGD) at 11:40Z

Weather Information
EKRN 180650Z AUTO 31001KT 9999NDV OVC037/// M01/M02 Q1028
EPGD 180630Z 29002KT 8000 SCT041 M03/M04 Q1026

Schedule Frequency

Route Map